createdAt,value
2018-06-02T00:02:07.450Z,93.30
2018-06-02T00:04:34.954Z,93.30
2018-06-02T00:07:02.463Z,93.40
2018-06-02T00:09:29.986Z,93.20
2018-06-02T00:11:57.493Z,93.10
2018-06-02T00:14:25.785Z,93.10
2018-06-02T00:16:53.296Z,93.10
2018-06-02T00:19:20.840Z,93.40
2018-06-02T00:21:48.339Z,93.60
2018-06-02T00:24:15.836Z,93.50
2018-06-02T00:26:43.363Z,93.60
2018-06-02T00:29:11.643Z,94.10
2018-06-02T00:31:39.962Z,93.90
2018-06-02T00:34:07.465Z,93.90
2018-06-02T00:36:35.739Z,94.10
2018-06-02T00:39:03.276Z,94.10
2018-06-02T00:41:30.880Z,94.10
2018-06-02T00:43:58.397Z,94.10
2018-06-02T00:46:25.919Z,94.10
2018-06-02T00:48:53.419Z,94.00
2018-06-02T00:51:20.936Z,93.90
2018-06-02T00:53:48.470Z,93.90
2018-06-02T00:56:16.743Z,94.00
2018-06-02T00:58:45.028Z,94.00
2018-06-02T01:01:12.530Z,94.00
2018-06-02T01:03:40.159Z,94.10
2018-06-02T01:06:07.726Z,94.10
2018-06-02T01:08:35.293Z,94.10
2018-06-02T01:11:02.843Z,94.30
2018-06-02T01:13:30.346Z,94.30
2018-06-02T01:15:57.883Z,94.40
2018-06-02T01:18:25.380Z,94.30
2018-06-02T01:20:53.109Z,94.30
2018-06-02T01:23:20.598Z,94.60
2018-06-02T01:25:48.863Z,94.40
2018-06-02T01:28:16.391Z,94.30
2018-06-02T01:30:43.895Z,94.30
2018-06-02T01:33:12.183Z,94.70
2018-06-02T01:35:40.451Z,94.50
2018-06-02T01:38:08.725Z,94.50
2018-06-02T01:40:37.008Z,94.20
2018-06-02T01:43:05.308Z,94.40
2018-06-02T01:45:32.811Z,94.50
2018-06-02T01:48:00.310Z,94.60
2018-06-02T01:50:27.829Z,94.40
2018-06-02T01:52:55.355Z,94.50
2018-06-02T01:55:22.877Z,94.60
2018-06-02T01:57:51.155Z,94.80
2018-06-02T02:00:19.448Z,94.90
2018-06-02T02:02:46.958Z,94.90
2018-06-02T02:05:14.547Z,94.90
2018-06-02T02:07:42.831Z,94.90
2018-06-02T02:10:10.336Z,94.90
2018-06-02T02:12:37.891Z,94.90
2018-06-02T02:15:05.617Z,95.00
2018-06-02T02:17:33.181Z,94.90
2018-06-02T02:20:00.728Z,94.90
2018-06-02T02:22:28.255Z,94.80
2018-06-02T02:24:55.774Z,94.80
2018-06-02T02:27:23.277Z,94.80
2018-06-02T02:29:51.560Z,94.80
2018-06-02T02:32:19.824Z,94.70
2018-06-02T02:34:47.348Z,94.70
2018-06-02T02:37:14.849Z,94.70
2018-06-02T02:39:43.115Z,94.90
2018-06-02T02:42:12.452Z,94.90
2018-06-02T02:44:39.970Z,94.90
2018-06-02T02:47:07.477Z,94.80
2018-06-02T02:49:35.007Z,94.80
2018-06-02T02:52:03.272Z,94.80
2018-06-02T02:54:30.861Z,94.80
2018-06-02T02:56:58.375Z,94.80
2018-06-02T02:59:25.915Z,94.90
2018-06-02T03:01:53.418Z,94.90
2018-06-02T03:04:21.678Z,94.90
2018-06-02T03:06:49.196Z,94.90
2018-06-02T03:09:16.748Z,94.90
2018-06-02T03:11:44.273Z,94.90
2018-06-02T03:14:12.558Z,94.90
2018-06-02T03:16:40.120Z,94.90
2018-06-02T03:19:07.636Z,94.90
2018-06-02T03:21:35.130Z,94.90
2018-06-02T03:24:03.410Z,94.80
2018-06-02T03:26:31.686Z,94.80
2018-06-02T03:28:59.997Z,94.80
2018-06-02T03:31:27.510Z,94.70
2018-06-02T03:33:55.775Z,94.90
2018-06-02T03:36:23.294Z,94.80
2018-06-02T03:38:50.799Z,94.80
2018-06-02T03:41:19.075Z,94.80
2018-06-02T03:43:47.363Z,94.80
2018-06-02T03:46:15.670Z,94.70
2018-06-02T03:48:43.180Z,94.70
2018-06-02T03:51:10.775Z,94.70
2018-06-02T03:53:38.384Z,94.70
2018-06-02T03:56:05.898Z,94.70
2018-06-02T03:58:33.421Z,94.80
2018-06-02T04:01:01.691Z,94.70
2018-06-02T04:03:30.089Z,94.80
2018-06-02T04:05:58.367Z,94.70
2018-06-02T04:08:26.648Z,94.70
2018-06-02T04:10:54.218Z,94.70
2018-06-02T04:13:21.712Z,94.70
2018-06-02T04:15:49.246Z,94.70
2018-06-02T04:18:16.749Z,94.70
2018-06-02T04:20:45.776Z,94.80
2018-06-02T04:23:13.280Z,95.00
2018-06-02T04:25:40.804Z,94.70
2018-06-02T04:28:08.325Z,94.80
2018-06-02T04:30:35.835Z,94.80
2018-06-02T04:33:03.357Z,94.70
2018-06-02T04:35:31.619Z,94.80
2018-06-02T04:37:59.143Z,94.80
2018-06-02T04:40:26.667Z,94.70
2018-06-02T04:42:54.165Z,94.60
2018-06-02T04:45:21.681Z,94.60
2018-06-02T04:47:49.207Z,94.70
2018-06-02T04:50:16.731Z,94.70
2018-06-02T04:52:44.252Z,94.70
2018-06-02T04:55:11.818Z,94.70
2018-06-02T04:57:39.386Z,94.80
2018-06-02T05:00:06.899Z,94.70
2018-06-02T05:02:34.483Z,94.70
2018-06-02T05:05:02.790Z,94.60
2018-06-02T05:07:30.300Z,94.60
2018-06-02T05:09:58.574Z,94.60
2018-06-02T05:12:26.874Z,94.80
2018-06-02T05:14:54.387Z,94.60
2018-06-02T05:17:21.918Z,94.70
2018-06-02T05:19:49.463Z,94.80
2018-06-02T05:22:16.963Z,94.80
2018-06-02T05:24:44.472Z,94.70
2018-06-02T05:27:11.996Z,94.60
2018-06-02T05:29:40.280Z,94.70
2018-06-02T05:32:08.578Z,94.50
2018-06-02T05:34:36.088Z,94.50
2018-06-02T05:37:03.704Z,94.40
2018-06-02T05:39:31.228Z,94.30
2018-06-02T05:41:59.518Z,94.20
2018-06-02T05:44:27.825Z,94.30
2018-06-02T05:46:55.331Z,94.20
2018-06-02T05:49:23.104Z,94.20
2018-06-02T05:51:51.411Z,94.10
2018-06-02T05:54:18.927Z,94.10
2018-06-02T05:56:46.441Z,94.10
2018-06-02T05:59:13.986Z,94.10
2018-06-02T06:01:41.506Z,94.00
2018-06-02T06:04:09.003Z,94.30
2018-06-02T06:06:36.563Z,93.90
2018-06-02T06:09:04.131Z,93.90
2018-06-02T06:11:31.780Z,94.00
2018-06-02T06:14:00.063Z,93.90
2018-06-02T06:16:27.615Z,94.20
2018-06-02T06:18:55.140Z,93.60
2018-06-02T06:21:22.751Z,93.50
2018-06-02T06:23:50.264Z,93.60
2018-06-02T06:26:17.802Z,93.40
2018-06-02T06:28:45.319Z,93.30
2018-06-02T06:31:12.845Z,93.30
2018-06-02T06:33:41.154Z,93.10
2018-06-02T06:36:08.668Z,93.10
2018-06-02T06:38:36.211Z,93.20
2018-06-02T06:41:03.712Z,93.30
2018-06-02T06:43:31.224Z,93.20
2018-06-02T06:45:58.841Z,93.30
2018-06-02T06:48:26.353Z,93.10
2018-06-02T06:50:53.877Z,93.10
2018-06-02T06:53:21.419Z,93.20
2018-06-02T06:55:48.928Z,93.30
2018-06-02T06:58:16.471Z,93.10
2018-06-02T07:00:43.980Z,92.50
2018-06-02T07:03:12.271Z,92.90
2018-06-02T07:05:39.792Z,92.90
2018-06-02T07:08:07.320Z,92.90
2018-06-02T07:10:34.847Z,92.80
2018-06-02T07:13:02.359Z,92.70
2018-06-02T07:15:29.959Z,92.60
2018-06-02T07:17:57.458Z,92.50
2018-06-02T07:20:24.977Z,92.70
2018-06-02T07:22:52.496Z,92.70
2018-06-02T07:25:20.009Z,92.20
2018-06-02T07:27:47.553Z,91.90
2018-06-02T07:30:15.064Z,92.00
2018-06-02T07:32:42.563Z,91.10
2018-06-02T07:35:10.846Z,90.60
2018-06-02T07:37:38.376Z,90.60
2018-06-02T07:40:06.663Z,90.60
2018-06-02T07:42:34.939Z,90.10
2018-06-02T07:45:03.231Z,90.80
2018-06-02T07:47:30.790Z,90.50
2018-06-02T07:49:58.359Z,90.70
2018-06-02T07:52:25.828Z,91.20
2018-06-02T07:54:53.335Z,90.60
2018-06-02T07:57:20.871Z,90.40
2018-06-02T07:59:48.368Z,90.40
2018-06-02T08:02:15.938Z,89.80
2018-06-02T08:04:43.460Z,90.00
2018-06-02T08:07:10.960Z,89.50
2018-06-02T08:09:38.515Z,88.90
2018-06-02T08:12:06.088Z,88.30
2018-06-02T08:14:33.597Z,87.20
2018-06-02T08:17:01.193Z,86.00
2018-06-02T08:19:28.727Z,85.90
2018-06-02T08:21:57.024Z,85.00
2018-06-02T08:24:24.578Z,85.00
2018-06-02T08:26:52.839Z,84.80
2018-06-02T08:29:20.339Z,84.10
2018-06-02T08:31:47.855Z,85.20
2018-06-02T08:34:15.396Z,86.40
2018-06-02T08:36:42.911Z,85.40
2018-06-02T08:39:10.472Z,86.50
2018-06-02T08:41:38.052Z,86.20
2018-06-02T08:44:05.551Z,86.50
2018-06-02T08:46:33.857Z,86.70
2018-06-02T08:49:01.358Z,86.60
2018-06-02T08:51:28.864Z,85.50
2018-06-02T08:53:56.472Z,84.70
2018-06-02T08:56:23.960Z,84.40
2018-06-02T08:58:52.263Z,82.70
2018-06-02T09:01:19.791Z,82.60
2018-06-02T09:03:47.287Z,83.10
2018-06-02T09:06:14.795Z,83.70
2018-06-02T09:08:42.314Z,82.70
2018-06-02T09:11:09.832Z,82.70
2018-06-02T09:13:38.116Z,83.00
2018-06-02T09:16:06.524Z,81.00
2018-06-02T09:18:34.075Z,81.00
2018-06-02T09:21:01.591Z,80.20
2018-06-02T09:23:29.282Z,79.40
2018-06-02T09:25:57.556Z,80.20
2018-06-02T09:28:25.827Z,80.10
2018-06-02T09:30:54.129Z,79.50
2018-06-02T09:33:21.643Z,79.40
2018-06-02T09:35:49.155Z,79.70
2018-06-02T09:38:16.794Z,78.70
2018-06-02T09:40:44.299Z,78.40
2018-06-02T09:43:11.811Z,80.70
2018-06-02T09:45:39.330Z,79.50
2018-06-02T09:48:06.859Z,80.60
2018-06-02T09:50:34.364Z,81.30
2018-06-02T09:53:02.655Z,80.20
2018-06-02T09:55:30.926Z,79.40
2018-06-02T09:57:59.201Z,79.90
2018-06-02T10:00:42.259Z,79.20
2018-06-02T10:03:10.535Z,78.30
2018-06-02T10:05:38.044Z,78.30
2018-06-02T10:08:06.315Z,79.30
2018-06-02T10:10:33.908Z,79.30
2018-06-02T10:13:01.377Z,81.90
2018-06-02T10:15:28.879Z,81.30
2018-06-02T10:17:56.445Z,82.30
2018-06-02T10:20:23.940Z,83.30
2018-06-02T10:22:51.494Z,83.50
2018-06-02T10:25:19.115Z,82.50
2018-06-02T10:27:46.613Z,82.00
2018-06-02T10:30:14.118Z,81.00
2018-06-02T10:32:41.642Z,79.20
2018-06-02T10:35:09.151Z,79.60
2018-06-02T10:37:36.678Z,80.60
2018-06-02T10:40:04.195Z,80.50
2018-06-02T10:42:32.491Z,80.50
2018-06-02T10:44:59.998Z,80.50
2018-06-02T10:47:27.496Z,79.60
2018-06-02T10:49:55.013Z,79.50
2018-06-02T10:52:22.615Z,78.80
2018-06-02T10:54:50.121Z,78.20
2018-06-02T10:57:17.618Z,76.50
2018-06-02T10:59:45.898Z,76.50
2018-06-02T11:02:14.248Z,76.70
2018-06-02T11:04:41.757Z,76.80
2018-06-02T11:07:09.270Z,75.00
2018-06-02T11:09:36.771Z,75.90
2018-06-02T11:12:04.275Z,76.70
2018-06-02T11:14:31.793Z,77.30
2018-06-02T11:16:59.431Z,77.00
2018-06-02T11:19:27.745Z,77.30
2018-06-02T11:21:55.236Z,77.30
2018-06-02T11:24:23.503Z,76.90
2018-06-02T11:26:51.016Z,76.90
2018-06-02T11:29:18.519Z,77.80
2018-06-02T11:31:46.107Z,78.20
2018-06-02T11:34:14.382Z,77.10
2018-06-02T11:36:42.647Z,76.70
2018-06-02T11:39:10.927Z,77.10
2018-06-02T11:41:39.238Z,76.30
2018-06-02T11:44:06.761Z,76.30
2018-06-02T11:46:34.263Z,76.60
2018-06-02T11:49:01.815Z,77.70
2018-06-02T11:51:29.331Z,77.10
2018-06-02T11:53:58.446Z,76.10
2018-06-02T11:56:26.748Z,75.90
2018-06-02T11:58:54.247Z,75.90
2018-06-02T12:01:21.792Z,75.40
2018-06-02T12:03:49.340Z,75.40
2018-06-02T12:06:16.880Z,76.30
2018-06-02T12:08:44.395Z,76.90
2018-06-02T12:11:11.896Z,77.30
2018-06-02T12:13:39.408Z,77.40
2018-06-02T12:16:06.942Z,76.60
2018-06-02T12:18:34.484Z,76.70
2018-06-02T12:21:02.031Z,75.30
2018-06-02T12:23:29.550Z,76.30
2018-06-02T12:25:57.064Z,76.30
2018-06-02T12:28:24.741Z,76.00
2018-06-02T12:30:52.270Z,73.00
2018-06-02T12:33:19.772Z,73.10
2018-06-02T12:35:47.383Z,72.60
2018-06-02T12:38:14.934Z,74.20
2018-06-02T12:40:42.455Z,75.00
2018-06-02T12:43:09.967Z,74.60
2018-06-02T12:45:37.498Z,74.10
2018-06-02T12:48:05.776Z,76.10
2018-06-02T12:50:34.048Z,76.60
2018-06-02T12:53:02.352Z,76.10
2018-06-02T12:55:29.855Z,76.10
2018-06-02T12:57:57.466Z,75.00
2018-06-02T13:00:24.992Z,74.40
2018-06-02T13:02:52.510Z,75.50
2018-06-02T13:05:20.017Z,75.70
2018-06-02T13:07:48.302Z,72.40
2018-06-02T13:10:16.567Z,71.60
2018-06-02T13:12:44.850Z,71.60
2018-06-02T13:15:13.115Z,70.70
2018-06-02T13:17:41.421Z,71.10
2018-06-02T13:20:08.956Z,70.90
2018-06-02T13:22:37.241Z,70.90
2018-06-02T13:25:05.507Z,71.20
2018-06-02T13:27:33.791Z,70.70
2018-06-02T13:30:02.082Z,70.00
2018-06-02T13:32:29.587Z,70.00
2018-06-02T13:34:57.098Z,69.20
2018-06-02T13:37:24.616Z,69.90
2018-06-02T13:39:52.135Z,70.10
2018-06-02T13:42:19.665Z,69.70
2018-06-02T13:44:47.965Z,69.20
2018-06-02T13:47:15.462Z,69.20
2018-06-02T13:49:42.991Z,69.50
2018-06-02T13:52:10.489Z,70.80
2018-06-02T13:54:37.988Z,70.10
2018-06-02T13:57:05.499Z,70.10
2018-06-02T13:59:33.063Z,69.90
2018-06-02T14:02:00.569Z,70.00
2018-06-02T14:04:28.116Z,68.60
2018-06-02T14:06:55.675Z,69.30
2018-06-02T14:09:23.175Z,69.60
2018-06-02T14:11:50.700Z,70.10
2018-06-02T14:14:18.261Z,70.00
2018-06-02T14:16:45.793Z,71.50
2018-06-02T14:19:14.062Z,70.00
2018-06-02T14:21:42.322Z,69.60
2018-06-02T14:24:09.850Z,69.80
2018-06-02T14:26:37.347Z,69.40
2018-06-02T14:29:04.943Z,70.00
2018-06-02T14:31:32.472Z,68.90
2018-06-02T14:34:00.758Z,68.80
2018-06-02T14:36:29.067Z,69.80
2018-06-02T14:38:56.575Z,69.70
2018-06-02T14:41:24.087Z,70.00
2018-06-02T14:43:51.627Z,70.60
2018-06-02T14:46:19.140Z,69.60
2018-06-02T14:48:46.659Z,70.30
2018-06-02T14:51:14.174Z,69.90
2018-06-02T14:53:42.502Z,70.40
2018-06-02T14:56:10.012Z,69.80
2018-06-02T14:58:38.305Z,69.60
2018-06-02T15:01:06.583Z,69.20
2018-06-02T15:03:34.099Z,69.20
2018-06-02T15:06:01.724Z,70.30
2018-06-02T15:08:29.236Z,71.50
2018-06-02T15:10:56.825Z,70.50
2018-06-02T15:13:24.480Z,69.30
2018-06-02T15:15:52.749Z,69.50
2018-06-02T15:18:21.030Z,69.20
2018-06-02T15:20:49.327Z,69.00
2018-06-02T15:23:16.846Z,69.00
2018-06-02T15:25:44.346Z,69.40
2018-06-02T15:28:11.861Z,69.30
2018-06-02T15:30:39.406Z,69.00
2018-06-02T15:33:06.949Z,68.50
2018-06-02T15:35:34.432Z,68.60
2018-06-02T15:38:01.960Z,68.20
2018-06-02T15:40:29.478Z,68.10
2018-06-02T15:42:57.790Z,67.80
2018-06-02T15:45:25.308Z,67.70
2018-06-02T15:47:53.593Z,67.50
2018-06-02T15:50:21.855Z,68.00
2018-06-02T15:52:50.251Z,68.10
2018-06-02T15:55:17.750Z,68.00
2018-06-02T15:57:45.277Z,67.80
2018-06-02T16:00:12.794Z,67.30
2018-06-02T16:02:40.310Z,67.10
2018-06-02T16:05:07.831Z,67.40
2018-06-02T16:07:36.086Z,67.90
2018-06-02T16:10:03.599Z,67.80
2018-06-02T16:12:31.115Z,67.30
2018-06-02T16:14:59.398Z,67.80
2018-06-02T16:17:27.676Z,68.80
2018-06-02T16:19:55.948Z,69.00
2018-06-02T16:22:24.242Z,69.00
2018-06-02T16:24:51.746Z,69.00
2018-06-02T16:27:19.247Z,68.30
2018-06-02T16:29:47.538Z,69.00
2018-06-02T16:32:15.834Z,69.10
2018-06-02T16:34:44.087Z,68.20
2018-06-02T16:37:11.591Z,68.20
2018-06-02T16:39:39.152Z,68.60
2018-06-02T16:42:06.649Z,68.50
2018-06-02T16:44:34.166Z,68.80
2018-06-02T16:47:01.673Z,69.00
2018-06-02T16:49:29.173Z,69.60
2018-06-02T16:51:57.466Z,69.30
2018-06-02T16:54:24.962Z,69.20
2018-06-02T16:56:52.471Z,69.40
2018-06-02T16:59:20.755Z,69.50
2018-06-02T17:01:48.271Z,69.50
2018-06-02T17:04:15.768Z,69.60
2018-06-02T17:06:43.331Z,69.70
2018-06-02T17:09:10.844Z,69.70
2018-06-02T17:11:38.396Z,70.00
2018-06-02T17:14:05.947Z,70.70
2018-06-02T17:16:33.422Z,70.80
2018-06-02T17:19:01.079Z,70.90
2018-06-02T17:21:28.598Z,71.60
2018-06-02T17:23:56.138Z,71.70
2018-06-02T17:26:23.636Z,71.90
2018-06-02T17:28:51.159Z,72.00
2018-06-02T17:31:18.728Z,72.40
2018-06-02T17:33:46.327Z,72.60
2018-06-02T17:36:13.936Z,73.20
2018-06-02T17:38:41.446Z,73.90
2018-06-02T17:41:08.962Z,73.40
2018-06-02T17:43:36.479Z,74.60
2018-06-02T17:46:04.005Z,74.70
2018-06-02T17:48:31.535Z,74.50
2018-06-02T17:50:59.092Z,75.20
2018-06-02T17:53:26.661Z,75.60
2018-06-02T17:55:54.272Z,76.60
2018-06-02T17:58:21.789Z,76.00
2018-06-02T18:00:49.307Z,76.60
2018-06-02T18:03:17.583Z,76.40
2018-06-02T18:05:45.863Z,76.60
2018-06-02T18:08:14.152Z,75.60
2018-06-02T18:10:41.690Z,75.60
2018-06-02T18:13:09.971Z,75.40
2018-06-02T18:15:38.243Z,75.40
2018-06-02T18:18:06.544Z,74.70
2018-06-02T18:20:34.043Z,74.70
2018-06-02T18:23:01.567Z,74.10
2018-06-02T18:25:29.116Z,73.80
2018-06-02T18:27:56.636Z,74.20
2018-06-02T18:30:24.143Z,74.10
2018-06-02T18:32:51.657Z,74.80
2018-06-02T18:35:19.167Z,75.40
2018-06-02T18:37:46.666Z,75.70
2018-06-02T18:40:14.378Z,76.10
2018-06-02T18:42:41.872Z,77.00
2018-06-02T18:45:09.373Z,76.70
2018-06-02T18:47:37.659Z,77.90
2018-06-02T18:50:05.924Z,78.70
2018-06-02T18:52:34.200Z,79.20
2018-06-02T18:55:02.516Z,78.60
2018-06-02T18:57:30.031Z,78.50
2018-06-02T18:59:58.316Z,78.50
2018-06-02T19:02:26.571Z,79.20
2018-06-02T19:04:54.071Z,79.20
2018-06-02T19:07:21.658Z,79.20
2018-06-02T19:09:49.179Z,78.70
2018-06-02T19:12:16.701Z,79.60
2018-06-02T19:14:44.216Z,80.00
2018-06-02T19:17:11.738Z,80.50
2018-06-02T19:19:40.012Z,80.40
2018-06-02T19:22:08.308Z,80.80
2018-06-02T19:24:35.838Z,80.80
2018-06-02T19:27:03.335Z,81.20
2018-06-02T19:29:30.898Z,82.40
2018-06-02T19:31:58.409Z,82.20
2018-06-02T19:34:25.912Z,83.00
2018-06-02T19:36:53.421Z,82.90
2018-06-02T19:39:20.938Z,83.20
2018-06-02T19:41:48.491Z,83.60
2018-06-02T19:44:16.044Z,84.00
2018-06-02T19:46:43.555Z,84.30
2018-06-02T19:49:11.079Z,84.60
2018-06-02T19:51:38.606Z,85.00
2018-06-02T19:54:06.166Z,85.20
2018-06-02T19:56:33.697Z,85.40
2018-06-02T19:59:01.211Z,85.40
2018-06-02T20:01:28.719Z,85.50
2018-06-02T20:03:57.020Z,85.80
2018-06-02T20:06:24.579Z,85.80
2018-06-02T20:08:52.074Z,85.90
2018-06-02T20:11:19.588Z,86.20
2018-06-02T20:13:47.874Z,86.60
2018-06-02T20:16:15.416Z,86.40
2018-06-02T20:18:43.682Z,86.80
2018-06-02T20:21:11.182Z,86.60
2018-06-02T20:23:38.717Z,86.80
2018-06-02T20:26:06.238Z,87.10
2018-06-02T20:28:33.842Z,87.50
2018-06-02T20:31:01.399Z,87.50
2018-06-02T20:33:28.913Z,87.60
2018-06-02T20:35:56.428Z,87.70
2018-06-02T20:38:23.964Z,88.00
2018-06-02T20:40:52.318Z,88.00
2018-06-02T20:43:19.827Z,88.00
2018-06-02T20:45:47.338Z,88.50
2018-06-02T20:48:16.368Z,89.00
2018-06-02T20:50:43.941Z,88.90
2018-06-02T20:53:11.455Z,89.00
2018-06-02T20:55:39.736Z,89.20
2018-06-02T20:58:08.048Z,89.50
2018-06-02T21:00:35.543Z,89.50
2018-06-02T21:03:03.042Z,89.60
2018-06-02T21:05:30.570Z,89.80
2018-06-02T21:07:58.084Z,90.00
2018-06-02T21:10:25.682Z,89.70
2018-06-02T21:12:53.289Z,89.60
2018-06-02T21:15:20.788Z,89.70
2018-06-02T21:17:48.307Z,89.50
2018-06-02T21:20:15.807Z,89.80
2018-06-02T21:22:43.374Z,89.90
2018-06-02T21:25:10.872Z,89.80
2018-06-02T21:27:38.382Z,89.70
2018-06-02T21:30:05.923Z,89.90
2018-06-02T21:32:33.437Z,89.70
2018-06-02T21:35:01.712Z,90.00
2018-06-02T21:37:29.984Z,90.00
2018-06-02T21:39:58.256Z,89.80
2018-06-02T21:42:25.836Z,89.80
2018-06-02T21:44:53.343Z,89.30
2018-06-02T21:47:20.844Z,89.20
2018-06-02T21:49:49.128Z,89.20
2018-06-02T21:52:16.649Z,89.20
2018-06-02T21:54:45.091Z,89.40
2018-06-02T21:57:12.601Z,89.00
2018-06-02T21:59:40.184Z,89.00
2018-06-02T22:02:07.707Z,89.00
2018-06-02T22:04:35.211Z,89.10
2018-06-02T22:07:02.726Z,88.80
2018-06-02T22:09:30.244Z,88.60
2018-06-02T22:11:58.531Z,88.80
2018-06-02T22:14:26.054Z,88.80
2018-06-02T22:16:54.348Z,89.30
2018-06-02T22:19:21.858Z,88.60
2018-06-02T22:21:49.367Z,88.90
2018-06-02T22:24:16.898Z,88.80
2018-06-02T22:26:45.170Z,89.10
2018-06-02T22:29:13.452Z,89.00
2018-06-02T22:31:40.995Z,89.00
2018-06-02T22:34:08.495Z,89.30
2018-06-02T22:36:35.997Z,89.70
2018-06-02T22:39:03.547Z,89.20
2018-06-02T22:41:31.058Z,89.40
2018-06-02T22:43:58.561Z,89.30
2018-06-02T22:46:26.079Z,89.10
2018-06-02T22:48:53.612Z,88.80
2018-06-02T22:54:56.459Z,89.20
2018-06-02T22:57:24.930Z,89.20
2018-06-02T22:59:53.450Z,89.20
2018-06-02T23:02:21.935Z,89.20
2018-06-02T23:04:50.616Z,89.30
2018-06-02T23:07:19.251Z,89.10
2018-06-02T23:09:47.659Z,89.60
2018-06-02T23:12:16.074Z,89.60
2018-06-02T23:14:44.468Z,89.80
2018-06-02T23:19:40.984Z,90.00
2018-06-02T23:22:19.454Z,90.00
2018-06-02T23:24:47.894Z,89.90
2018-06-02T23:27:16.304Z,90.00
2018-06-02T23:29:44.700Z,90.30
2018-06-02T23:32:13.110Z,90.00
2018-06-02T23:34:41.502Z,90.10
2018-06-02T23:37:09.926Z,90.10
2018-06-02T23:40:48.119Z,90.00
2018-06-02T23:45:44.611Z,90.00
2018-06-02T23:48:13.027Z,90.00
2018-06-02T23:50:41.419Z,90.10
2018-06-02T23:53:09.834Z,90.20
2018-06-02T23:55:38.246Z,90.30
2018-06-02T23:58:06.643Z,90.40
